Messingham, United Kingdom
Current Conditions -  °F | °C
As of 5:50 PM on Friday 19 Dec 2014 (Local Time) from EGNJ Reporting Station
Scattered Clouds Scattered Clouds  
Wind Chill: 39°   Ceiling: Unl
Heat Index: 46°   Visibility: 6mi
Dew Point: 37°   Wind: 20mph
Humidity: 71%   Direction: 250°WSW
Pressure: 29.94"   Gusts: NA
Location:  53.53°N, 0.65°W
Report Text: EGNJ 191750Z 25017KT 9999 SCT028 08/03 Q1014
Loading
Personal Weather Stations






























Interactive Weather Map New forecast layout! Learn more

10-Day Weather Forecast

Advertisements
Track Severe Weather on mobile